Time;durP1;ratioP1;P1;durP2;ratioP2;P2;SDS_P1;SDS_P2;PMS_P1;PMS_P2;Temp;Humidity;BMP_temperature;BMP_pressure;BME280_temperature;BME280_humidity;BME280_pressure;Samples;Min_cycle;Max_cycle;Signal;HPM_P1;HPM_P2
2024/02/17 00:01:56;;;;;;;0.17;0.17;;;;;;;;;;5094559;28;20256;-66
2024/02/17 00:04:21;;;;;;;0.00;0.00;;;;;;;;;;5094821;28;20024;-65
2024/02/17 00:06:46;;;;;;;0.00;0.00;;;;;;;;;;5094520;28;20477;-66
2024/02/17 00:09:12;;;;;;;0.10;0.10;;;;;;;;;;5094415;28;20839;-65
2024/02/17 00:11:37;;;;;;;0.00;0.00;;;;;;;;;;5094605;28;20016;-66
2024/02/17 00:14:03;;;;;;;2.58;1.15;;;;;;;;;;5094282;28;20731;-66
2024/02/17 00:16:28;;;;;;;0.00;0.00;;;;;;;;;;5094581;28;20055;-66
2024/02/17 00:18:53;;;;;;;0.00;0.00;;;;;;;;;;5094264;28;20388;-66
2024/02/17 00:21:19;;;;;;;0.28;0.28;;;;;;;;;;5094472;28;20586;-66
2024/02/17 00:23:44;;;;;;;0.10;0.10;;;;;;;;;;5094207;28;20022;-66
2024/02/17 00:26:09;;;;;;;0.00;0.00;;;;;;;;;;5094181;28;20049;-66
2024/02/17 00:28:34;;;;;;;0.00;0.00;;;;;;;;;;5094293;28;20030;-66
2024/02/17 00:30:59;;;;;;;0.10;0.10;;;;;;;;;;5094026;28;20418;-66
2024/02/17 00:33:25;;;;;;;0.00;0.00;;;;;;;;;;5094078;28;20658;-66
2024/02/17 00:35:52;;;;;;;0.10;0.10;;;;;;;;;;5093812;28;20351;-66
2024/02/17 00:38:19;;;;;;;0.10;0.10;;;;;;;;;;5094132;28;20031;-66
2024/02/17 00:40:44;;;;;;;0.03;0.03;;;;;;;;;;5094159;28;20028;-66
2024/02/17 00:43:10;;;;;;;0.20;0.20;;;;;;;;;;5093933;28;20487;-66
2024/02/17 00:45:35;;;;;;;0.00;0.00;;;;;;;;;;5094076;28;20016;-66
2024/02/17 00:48:01;;;;;;;0.10;0.10;;;;;;;;;;5093672;28;20023;-66
2024/02/17 00:50:26;;;;;;;0.08;0.08;;;;;;;;;;5093973;28;20245;-66
2024/02/17 00:52:52;;;;;;;0.00;0.00;;;;;;;;;;5093746;28;20387;-66
2024/02/17 00:55:18;;;;;;;0.00;0.00;;;;;;;;;;5093565;28;20252;-66
2024/02/17 00:57:43;;;;;;;0.93;0.77;;;;;;;;;;5093613;28;20020;-66
2024/02/17 01:00:09;;;;;;;2.07;1.03;;;;;;;;;;5093860;28;20073;-66
2024/02/17 01:02:35;;;;;;;0.13;0.13;;;;;;;;;;5093851;28;20030;-66
2024/02/17 01:05:00;;;;;;;0.10;0.10;;;;;;;;;;5093441;28;20471;-66
2024/02/17 01:07:25;;;;;;;0.30;0.30;;;;;;;;;;5093524;28;20027;-66
2024/02/17 01:09:53;;;;;;;0.23;0.23;;;;;;;;;;5093418;28;20028;-66
2024/02/17 01:12:19;;;;;;;0.00;0.00;;;;;;;;;;5093624;28;20240;-66
2024/02/17 01:14:44;;;;;;;0.30;0.30;;;;;;;;;;5093527;28;20498;-66
2024/02/17 01:17:09;;;;;;;0.10;0.10;;;;;;;;;;5093699;28;20369;-68
2024/02/17 01:19:34;;;;;;;0.00;0.00;;;;;;;;;;5093435;28;20016;-68
2024/02/17 01:22:00;;;;;;;0.27;0.27;;;;;;;;;;5093351;28;20731;-69
2024/02/17 01:24:25;;;;;;;0.13;0.13;;;;;;;;;;5093589;28;20604;-69
2024/02/17 01:26:50;;;;;;;0.15;0.15;;;;;;;;;;5093373;28;20016;-68
2024/02/17 01:29:18;;;;;;;0.10;0.10;;;;;;;;;;5093463;28;20035;-68
2024/02/17 01:31:44;;;;;;;0.10;0.10;;;;;;;;;;5093192;28;20020;-69
2024/02/17 01:34:09;;;;;;;0.10;0.10;;;;;;;;;;5093287;28;20016;-68
2024/02/17 01:36:35;;;;;;;0.00;0.00;;;;;;;;;;5093098;28;20421;-68
2024/02/17 01:39:00;;;;;;;0.40;0.40;;;;;;;;;;5093155;28;20063;-68
2024/02/17 01:41:25;;;;;;;0.00;0.00;;;;;;;;;;5093449;28;20024;-68
2024/02/17 01:43:51;;;;;;;0.00;0.00;;;;;;;;;;5093440;28;20127;-68
2024/02/17 01:46:16;;;;;;;0.10;0.10;;;;;;;;;;5093204;28;20667;-68
2024/02/17 01:48:42;;;;;;;0.00;0.00;;;;;;;;;;5093107;28;20746;-68
2024/02/17 01:51:10;;;;;;;0.00;0.00;;;;;;;;;;5093338;28;20384;-68
2024/02/17 01:53:35;;;;;;;0.10;0.10;;;;;;;;;;5093004;28;20024;-68
2024/02/17 01:56:01;;;;;;;0.20;0.20;;;;;;;;;;5093004;28;20012;-68
2024/02/17 01:58:27;;;;;;;0.08;0.08;;;;;;;;;;5093267;28;20121;-68
2024/02/17 02:00:52;;;;;;;0.28;0.28;;;;;;;;;;5093236;28;20031;-68
2024/02/17 02:03:18;;;;;;;0.00;0.00;;;;;;;;;;5093051;28;20391;-68
2024/02/17 02:05:44;;;;;;;0.10;0.10;;;;;;;;;;5093028;28;20085;-68
2024/02/17 02:08:09;;;;;;;0.05;0.05;;;;;;;;;;5094873;28;20046;-68
2024/02/17 02:10:34;;;;;;;0.40;0.40;;;;;;;;;;5096985;28;20058;-68
2024/02/17 02:12:59;;;;;;;0.00;0.00;;;;;;;;;;5096650;28;20020;-68
2024/02/17 02:15:25;;;;;;;0.27;0.27;;;;;;;;;;5096652;28;20025;-68
2024/02/17 02:17:50;;;;;;;0.03;0.03;;;;;;;;;;5096677;28;20244;-68
2024/02/17 02:20:16;;;;;;;0.00;0.00;;;;;;;;;;5096545;28;20027;-68
2024/02/17 02:22:43;;;;;;;0.03;0.03;;;;;;;;;;5096586;28;20028;-69
2024/02/17 02:25:11;;;;;;;0.08;0.08;;;;;;;;;;5096786;28;20024;-68
2024/02/17 02:27:41;;;;;;;0.30;0.30;;;;;;;;;;5096539;28;20103;-68
2024/02/17 02:30:06;;;;;;;0.00;0.00;;;;;;;;;;5096290;28;20024;-69
2024/02/17 02:32:31;;;;;;;0.10;0.10;;;;;;;;;;5096601;28;20027;-69
2024/02/17 02:34:58;;;;;;;0.03;0.03;;;;;;;;;;5096351;28;20097;-69
2024/02/17 02:37:27;;;;;;;0.03;0.03;;;;;;;;;;5096084;28;20641;-68
2024/02/17 02:39:52;;;;;;;0.00;0.00;;;;;;;;;;5096237;28;20048;-68
2024/02/17 02:42:17;;;;;;;0.00;0.00;;;;;;;;;;5096150;28;20105;-68
2024/02/17 02:44:43;;;;;;;0.70;0.70;;;;;;;;;;5096067;28;20259;-68
2024/02/17 02:47:08;;;;;;;0.10;0.10;;;;;;;;;;5096132;28;20020;-69
2024/02/17 02:49:33;;;;;;;0.63;0.60;;;;;;;;;;5095936;28;20702;-68
2024/02/17 02:51:58;;;;;;;0.47;0.45;;;;;;;;;;5096215;28;20732;-68
2024/02/17 02:54:24;;;;;;;0.10;0.10;;;;;;;;;;5096128;28;20020;-68
2024/02/17 02:56:49;;;;;;;0.00;0.00;;;;;;;;;;5095929;28;20031;-68
2024/02/17 02:59:14;;;;;;;0.33;0.33;;;;;;;;;;5095860;28;20290;-68
2024/02/17 03:01:39;;;;;;;0.10;0.10;;;;;;;;;;5095852;28;20267;-68
2024/02/17 03:04:05;;;;;;;0.00;0.00;;;;;;;;;;5095738;28;20237;-68
2024/02/17 03:06:30;;;;;;;0.27;0.27;;;;;;;;;;5095955;28;20066;-68
2024/02/17 03:08:56;;;;;;;0.00;0.00;;;;;;;;;;5095780;28;20272;-68
2024/02/17 03:11:21;;;;;;;0.43;0.43;;;;;;;;;;5095874;28;20012;-68
2024/02/17 03:13:46;;;;;;;0.20;0.20;;;;;;;;;;5095567;28;20047;-68
2024/02/17 03:16:21;;;;;;;3.63;1.80;;;;;;;;;;5095764;28;20415;-68
2024/02/17 03:18:46;;;;;;;0.00;0.00;;;;;;;;;;5095125;28;20067;-68
2024/02/17 03:21:11;;;;;;;0.30;0.30;;;;;;;;;;5095510;28;20020;-68
2024/02/17 03:23:36;;;;;;;0.90;0.83;;;;;;;;;;5095339;28;20260;-68
2024/02/17 03:26:02;;;;;;;0.30;0.30;;;;;;;;;;5095553;28;20257;-68
2024/02/17 03:28:27;;;;;;;0.00;0.00;;;;;;;;;;5095242;28;20048;-68
2024/02/17 03:30:52;;;;;;;0.63;0.63;;;;;;;;;;5095280;28;20717;-68
2024/02/17 03:33:17;;;;;;;0.52;0.52;;;;;;;;;;5095431;28;20615;-68
2024/02/17 03:35:42;;;;;;;0.10;0.10;;;;;;;;;;5095019;28;20073;-68
2024/02/17 03:38:08;;;;;;;0.57;0.57;;;;;;;;;;5095198;28;20240;-68
2024/02/17 03:40:33;;;;;;;0.00;0.00;;;;;;;;;;5095005;28;20274;-68
2024/02/17 03:42:58;;;;;;;0.10;0.10;;;;;;;;;;5095006;28;20252;-68
2024/02/17 03:45:23;;;;;;;0.23;0.23;;;;;;;;;;5094977;28;20012;-68
2024/02/17 03:47:49;;;;;;;1.13;0.53;;;;;;;;;;5094912;28;20232;-68
2024/02/17 03:50:14;;;;;;;0.20;0.20;;;;;;;;;;5094975;28;20277;-68
2024/02/17 03:52:39;;;;;;;0.20;0.20;;;;;;;;;;5094842;28;20574;-68
2024/02/17 03:55:04;;;;;;;0.07;0.07;;;;;;;;;;5094683;28;20294;-68
2024/02/17 03:57:30;;;;;;;0.00;0.00;;;;;;;;;;5094736;28;20648;-68
2024/02/17 03:59:55;;;;;;;0.00;0.00;;;;;;;;;;5094686;28;20426;-68
2024/02/17 04:02:20;;;;;;;0.00;0.00;;;;;;;;;;5094945;28;20256;-68
2024/02/17 04:04:46;;;;;;;0.00;0.00;;;;;;;;;;5094631;28;20091;-68
2024/02/17 04:07:11;;;;;;;0.10;0.10;;;;;;;;;;5094380;28;20331;-68
2024/02/17 04:09:36;;;;;;;0.10;0.10;;;;;;;;;;5094350;28;20036;-68
2024/02/17 04:12:02;;;;;;;0.35;0.35;;;;;;;;;;5094471;28;20315;-68
2024/02/17 04:14:27;;;;;;;0.10;0.10;;;;;;;;;;5094612;28;20016;-68
2024/02/17 04:16:52;;;;;;;0.22;0.22;;;;;;;;;;5094431;28;20464;-68
2024/02/17 04:19:18;;;;;;;0.10;0.10;;;;;;;;;;5094207;28;20032;-68
2024/02/17 04:21:44;;;;;;;0.28;0.28;;;;;;;;;;5094504;28;20255;-68
2024/02/17 04:24:09;;;;;;;0.10;0.10;;;;;;;;;;5094498;28;20016;-68
2024/02/17 04:26:35;;;;;;;0.10;0.10;;;;;;;;;;5094295;28;20364;-68
2024/02/17 04:29:00;;;;;;;0.50;0.50;;;;;;;;;;5094072;28;20065;-68
2024/02/17 04:31:25;;;;;;;0.70;0.67;;;;;;;;;;5093451;28;20241;-68
2024/02/17 04:33:50;;;;;;;0.00;0.00;;;;;;;;;;5094041;28;20324;-68
2024/02/17 04:36:16;;;;;;;0.05;0.05;;;;;;;;;;5093993;28;20300;-68
2024/02/17 04:38:41;;;;;;;0.33;0.33;;;;;;;;;;5094043;28;20031;-68
2024/02/17 04:41:06;;;;;;;0.17;0.17;;;;;;;;;;5094128;28;20720;-68
2024/02/17 04:43:31;;;;;;;0.40;0.40;;;;;;;;;;5093865;28;20024;-68
2024/02/17 04:45:57;;;;;;;0.13;0.13;;;;;;;;;;5093907;28;20073;-68
2024/02/17 04:48:22;;;;;;;0.60;0.40;;;;;;;;;;5094046;28;20416;-66
2024/02/17 04:50:47;;;;;;;0.10;0.10;;;;;;;;;;5094055;28;20103;-66
2024/02/17 04:53:12;;;;;;;0.00;0.00;;;;;;;;;;5093760;28;20324;-66
2024/02/17 04:55:38;;;;;;;1.47;1.23;;;;;;;;;;5093916;28;20245;-65
2024/02/17 04:58:06;;;;;;;0.28;0.28;;;;;;;;;;5093852;28;20241;-66
2024/02/17 05:00:31;;;;;;;5.78;0.57;;;;;;;;;;5093858;28;20030;-65
2024/02/17 05:02:56;;;;;;;0.43;0.43;;;;;;;;;;5093612;28;20488;-66
2024/02/17 05:05:22;;;;;;;0.30;0.30;;;;;;;;;;5093580;28;20034;-66
2024/02/17 05:07:47;;;;;;;0.25;0.25;;;;;;;;;;5093455;28;20244;-66
2024/02/17 05:10:12;;;;;;;0.20;0.20;;;;;;;;;;5093503;28;20020;-66
2024/02/17 05:12:37;;;;;;;0.10;0.10;;;;;;;;;;5093379;28;20264;-66
2024/02/17 05:15:03;;;;;;;0.10;0.10;;;;;;;;;;5093436;28;20046;-66
2024/02/17 05:17:28;;;;;;;0.50;0.50;;;;;;;;;;5093700;28;20368;-66
2024/02/17 05:19:54;;;;;;;0.40;0.40;;;;;;;;;;5093402;28;20111;-66
2024/02/17 05:22:19;;;;;;;0.22;0.22;;;;;;;;;;5093626;28;20329;-66
2024/02/17 05:24:45;;;;;;;0.00;0.00;;;;;;;;;;5093625;28;20070;-65
2024/02/17 05:27:11;;;;;;;0.08;0.08;;;;;;;;;;5093419;28;20477;-65
2024/02/17 05:29:37;;;;;;;0.20;0.20;;;;;;;;;;5093473;28;20468;-65
2024/02/17 05:32:03;;;;;;;0.52;0.30;;;;;;;;;;5093528;28;20077;-66
2024/02/17 05:34:28;;;;;;;0.00;0.00;;;;;;;;;;5093460;28;20012;-66
2024/02/17 05:36:53;;;;;;;0.73;0.73;;;;;;;;;;5093104;28;20591;-65
2024/02/17 05:39:18;;;;;;;0.03;0.03;;;;;;;;;;5092390;28;20020;-66
2024/02/17 05:41:43;;;;;;;0.87;0.87;;;;;;;;;;5093285;28;20264;-65
2024/02/17 05:44:09;;;;;;;0.03;0.03;;;;;;;;;;5096221;28;20240;-66
2024/02/17 05:46:34;;;;;;;0.82;0.80;;;;;;;;;;5096443;28;20020;-66
2024/02/17 05:48:59;;;;;;;0.35;0.35;;;;;;;;;;5096079;28;20035;-65
2024/02/17 05:51:25;;;;;;;0.10;0.10;;;;;;;;;;5096025;28;20024;-66
2024/02/17 05:53:50;;;;;;;0.00;0.00;;;;;;;;;;5095554;28;20237;-66
2024/02/17 05:56:16;;;;;;;1.23;0.60;;;;;;;;;;5095963;28;20016;-66
2024/02/17 05:58:41;;;;;;;0.13;0.13;;;;;;;;;;5096011;28;20245;-68
2024/02/17 06:01:07;;;;;;;0.15;0.15;;;;;;;;;;5096103;28;20047;-68
2024/02/17 06:03:32;;;;;;;0.10;0.10;;;;;;;;;;5095777;28;20379;-68
2024/02/17 06:05:57;;;;;;;0.00;0.00;;;;;;;;;;5095268;28;20031;-68
2024/02/17 06:08:23;;;;;;;0.17;0.17;;;;;;;;;;5095740;28;20511;-68
2024/02/17 06:10:48;;;;;;;1.13;0.77;;;;;;;;;;5095718;28;20253;-68
2024/02/17 06:13:13;;;;;;;0.47;0.40;;;;;;;;;;5095576;28;20248;-68
2024/02/17 06:15:42;;;;;;;1.10;0.77;;;;;;;;;;5095876;28;20020;-68
2024/02/17 06:23:35;;;;;;;0.20;0.20;;;;;;;;;;5095484;28;20023;-68
2024/02/17 06:26:00;;;;;;;0.20;0.20;;;;;;;;;;5095450;28;20012;-68
2024/02/17 06:28:25;;;;;;;0.53;0.53;;;;;;;;;;5095341;28;20743;-68
2024/02/17 06:30:51;;;;;;;0.83;0.83;;;;;;;;;;5095340;28;20034;-68
2024/02/17 06:33:16;;;;;;;0.20;0.20;;;;;;;;;;5094792;28;20019;-68
2024/02/17 06:35:41;;;;;;;0.23;0.23;;;;;;;;;;5095039;28;20261;-68
2024/02/17 06:38:06;;;;;;;0.63;0.63;;;;;;;;;;5095166;28;20245;-68
2024/02/17 06:40:32;;;;;;;0.40;0.40;;;;;;;;;;5095162;28;20061;-68
2024/02/17 06:42:57;;;;;;;0.67;0.57;;;;;;;;;;5095081;28;20245;-68
2024/02/17 06:45:22;;;;;;;0.30;0.30;;;;;;;;;;5094612;28;20035;-68
2024/02/17 06:47:47;;;;;;;0.05;0.05;;;;;;;;;;5095059;28;20251;-68
2024/02/17 06:50:13;;;;;;;0.27;0.27;;;;;;;;;;5096013;28;20452;-68
2024/02/17 06:52:38;;;;;;;0.73;0.50;;;;;;;;;;5095572;28;20736;-68
2024/02/17 06:55:04;;;;;;;0.10;0.10;;;;;;;;;;5095674;28;20020;-68
2024/02/17 06:57:29;;;;;;;0.45;0.45;;;;;;;;;;5095909;28;20020;-68
2024/02/17 06:59:55;;;;;;;0.20;0.20;;;;;;;;;;5095876;28;20031;-68
2024/02/17 07:02:23;;;;;;;0.17;0.17;;;;;;;;;;5095802;28;20051;-68
2024/02/17 07:04:52;;;;;;;0.20;0.20;;;;;;;;;;5095877;28;20028;-68
2024/02/17 07:07:17;;;;;;;1.00;0.60;;;;;;;;;;5096041;28;20504;-67
2024/02/17 07:09:43;;;;;;;0.10;0.10;;;;;;;;;;5095851;28;20016;-68
2024/02/17 07:12:08;;;;;;;1.33;0.63;;;;;;;;;;5095800;28;20022;-68
2024/02/17 07:14:33;;;;;;;0.10;0.10;;;;;;;;;;5095797;28;20418;-68
2024/02/17 07:16:59;;;;;;;0.23;0.23;;;;;;;;;;5095779;28;20017;-68
2024/02/17 07:19:24;;;;;;;1.83;1.73;;;;;;;;;;5095415;28;20241;-68
2024/02/17 07:21:50;;;;;;;2.33;1.50;;;;;;;;;;5095387;28;20028;-68
2024/02/17 07:24:15;;;;;;;2.85;2.17;;;;;;;;;;5095623;28;20260;-68
2024/02/17 07:26:42;;;;;;;2.45;2.28;;;;;;;;;;5095300;28;20095;-68
2024/02/17 07:29:07;;;;;;;1.00;1.00;;;;;;;;;;5073115;28;20065;-68
2024/02/17 07:31:37;;;;;;;1.23;1.13;;;;;;;;;;5074164;28;20029;-68
2024/02/17 07:34:02;;;;;;;2.30;2.10;;;;;;;;;;5074127;28;20245;-68
2024/02/17 07:36:27;;;;;;;1.17;1.07;;;;;;;;;;5073782;28;20111;-68
2024/02/17 07:38:54;;;;;;;1.27;0.83;;;;;;;;;;5074147;28;20403;-68
2024/02/17 07:41:19;;;;;;;3.33;1.60;;;;;;;;;;5073863;28;20157;-68
2024/02/17 07:43:45;;;;;;;0.30;0.30;;;;;;;;;;5073587;28;20048;-68
2024/02/17 07:46:10;;;;;;;1.50;0.93;;;;;;;;;;5074263;28;20060;-68
2024/02/17 07:48:35;;;;;;;1.90;1.80;;;;;;;;;;5072434;28;20740;-68
2024/02/17 07:51:00;;;;;;;0.40;0.40;;;;;;;;;;5073559;28;20024;-68
2024/02/17 07:53:27;;;;;;;0.50;0.50;;;;;;;;;;5073891;28;20246;-68
2024/02/17 07:55:52;;;;;;;0.40;0.40;;;;;;;;;;5074297;28;20320;-68
2024/02/17 07:58:17;;;;;;;0.30;0.30;;;;;;;;;;5073369;28;20095;-68
2024/02/17 08:00:43;;;;;;;0.33;0.33;;;;;;;;;;5073985;28;20074;-68
2024/02/17 08:03:08;;;;;;;0.83;0.83;;;;;;;;;;5074071;28;20245;-68
2024/02/17 08:05:33;;;;;;;0.95;0.95;;;;;;;;;;5072668;28;20337;-68
2024/02/17 08:07:59;;;;;;;0.60;0.60;;;;;;;;;;5073665;28;20028;-68
2024/02/17 08:10:24;;;;;;;0.20;0.20;;;;;;;;;;5073528;28;20101;-68
2024/02/17 08:12:49;;;;;;;0.67;0.67;;;;;;;;;;5072781;28;20336;-68
2024/02/17 08:15:14;;;;;;;0.40;0.40;;;;;;;;;;5073660;28;20249;-68
2024/02/17 08:17:40;;;;;;;1.90;1.27;;;;;;;;;;5073624;28;20249;-68
2024/02/17 08:20:05;;;;;;;0.20;0.20;;;;;;;;;;5073772;28;20035;-68
2024/02/17 08:22:31;;;;;;;1.00;0.63;;;;;;;;;;5073351;28;20021;-68
2024/02/17 08:24:56;;;;;;;0.90;0.87;;;;;;;;;;5073387;28;20384;-68
2024/02/17 08:27:21;;;;;;;0.20;0.20;;;;;;;;;;5072720;28;20272;-68
2024/02/17 08:29:46;;;;;;;0.10;0.10;;;;;;;;;;5073230;28;20265;-68
2024/02/17 08:32:12;;;;;;;0.85;0.80;;;;;;;;;;5073241;28;20046;-68
2024/02/17 08:34:37;;;;;;;0.17;0.17;;;;;;;;;;5075488;28;20051;-68
2024/02/17 08:37:02;;;;;;;1.13;1.00;;;;;;;;;;5081631;28;20036;-68
2024/02/17 08:39:27;;;;;;;1.58;1.38;;;;;;;;;;5082134;28;20318;-68
2024/02/17 08:41:55;;;;;;;0.30;0.30;;;;;;;;;;5084316;28;20046;-69
2024/02/17 08:44:20;;;;;;;0.32;0.32;;;;;;;;;;5077072;28;20314;-78
2024/02/17 08:46:46;;;;;;;1.13;0.88;;;;;;;;;;5063426;28;20032;-78
2024/02/17 08:49:11;;;;;;;0.80;0.60;;;;;;;;;;5084058;28;20016;-77
2024/02/17 08:51:36;;;;;;;0.15;0.15;;;;;;;;;;5085283;28;20264;-68
2024/02/17 08:54:02;;;;;;;0.13;0.13;;;;;;;;;;5093543;28;20047;-68
2024/02/17 08:56:27;;;;;;;1.90;1.05;;;;;;;;;;5092808;28;20024;-68
2024/02/17 08:58:53;;;;;;;0.28;0.28;;;;;;;;;;5092892;28;20020;-67
2024/02/17 09:01:18;;;;;;;0.40;0.40;;;;;;;;;;5073911;28;20505;-67
2024/02/17 09:03:44;;;;;;;0.85;0.82;;;;;;;;;;5073427;28;20020;-76
2024/02/17 09:06:09;;;;;;;0.43;0.43;;;;;;;;;;5072909;28;20372;-78
2024/02/17 09:08:34;;;;;;;0.28;0.28;;;;;;;;;;5072657;28;20044;-77
2024/02/17 09:11:00;;;;;;;0.60;0.60;;;;;;;;;;5072860;28;20020;-77
2024/02/17 09:13:25;;;;;;;0.57;0.57;;;;;;;;;;5072183;28;20025;-76
2024/02/17 09:15:50;;;;;;;0.50;0.50;;;;;;;;;;5072920;28;20733;-76
2024/02/17 09:18:16;;;;;;;0.47;0.47;;;;;;;;;;5073208;28;20008;-76
2024/02/17 09:20:41;;;;;;;0.82;0.82;;;;;;;;;;5072848;28;20019;-76
2024/02/17 09:23:07;;;;;;;1.10;0.70;;;;;;;;;;5074655;28;20032;-65
2024/02/17 09:25:32;;;;;;;0.47;0.47;;;;;;;;;;5073254;28;20253;-68
2024/02/17 09:27:58;;;;;;;3.88;1.45;;;;;;;;;;5073206;28;20494;-67
2024/02/17 09:30:23;;;;;;;0.50;0.50;;;;;;;;;;5073060;28;20020;-66
2024/02/17 09:32:48;;;;;;;0.30;0.20;;;;;;;;;;5073024;28;20287;-66
2024/02/17 09:35:13;;;;;;;0.90;0.90;;;;;;;;;;5072957;28;20238;-66
2024/02/17 09:37:43;;;;;;;0.70;0.70;;;;;;;;;;5072617;28;20281;-66
2024/02/17 09:40:09;;;;;;;0.25;0.25;;;;;;;;;;5072898;28;20024;-66
2024/02/17 09:42:34;;;;;;;1.85;1.13;;;;;;;;;;5072841;28;20021;-66
2024/02/17 09:44:59;;;;;;;0.37;0.37;;;;;;;;;;5072878;28;20113;-66
2024/02/17 09:47:25;;;;;;;0.50;0.50;;;;;;;;;;5072885;28;20256;-66
2024/02/17 09:49:50;;;;;;;0.52;0.52;;;;;;;;;;5072744;28;20043;-66
2024/02/17 09:52:17;;;;;;;0.20;0.20;;;;;;;;;;5072930;28;20024;-66
2024/02/17 09:54:43;;;;;;;0.60;0.45;;;;;;;;;;5072727;28;20016;-66
2024/02/17 09:57:08;;;;;;;0.50;0.50;;;;;;;;;;5072772;28;20020;-66
2024/02/17 09:59:34;;;;;;;0.38;0.38;;;;;;;;;;5072921;28;20518;-66
2024/02/17 10:01:59;;;;;;;1.48;1.08;;;;;;;;;;5072876;28;20020;-66
2024/02/17 10:04:25;;;;;;;0.45;0.45;;;;;;;;;;5072657;28;20020;-66
2024/02/17 10:07:00;;;;;;;0.55;0.45;;;;;;;;;;5072881;28;20067;-66
2024/02/17 10:09:27;;;;;;;0.45;0.45;;;;;;;;;;5054489;28;20063;-66
2024/02/17 10:11:52;;;;;;;0.45;0.45;;;;;;;;;;5072441;28;20021;-66
2024/02/17 10:14:21;;;;;;;0.30;0.30;;;;;;;;;;5072805;28;20093;-66
2024/02/17 10:16:47;;;;;;;0.52;0.52;;;;;;;;;;5072843;28;20461;-66
2024/02/17 10:19:13;;;;;;;0.20;0.20;;;;;;;;;;5072696;28;20032;-66
2024/02/17 10:21:39;;;;;;;0.00;0.00;;;;;;;;;;5072473;28;20110;-66
2024/02/17 10:24:05;;;;;;;0.75;0.75;;;;;;;;;;5072546;28;20028;-66
2024/02/17 10:26:30;;;;;;;0.10;0.10;;;;;;;;;;5072500;28;20534;-66
2024/02/17 10:28:56;;;;;;;0.50;0.50;;;;;;;;;;5074271;28;20469;-66
2024/02/17 10:31:21;;;;;;;0.38;0.38;;;;;;;;;;5076430;28;20020;-66
2024/02/17 10:33:50;;;;;;;0.30;0.30;;;;;;;;;;5076149;28;20106;-66
2024/02/17 10:36:19;;;;;;;0.60;0.32;;;;;;;;;;5076109;28;20028;-66
2024/02/17 10:38:45;;;;;;;0.30;0.30;;;;;;;;;;5076388;28;20035;-68
2024/02/17 10:41:10;;;;;;;0.45;0.45;;;;;;;;;;5058171;28;20017;-68
2024/02/17 10:43:40;;;;;;;0.20;0.20;;;;;;;;;;5075889;28;20056;-68
2024/02/17 10:46:08;;;;;;;0.30;0.30;;;;;;;;;;5076137;28;20392;-68
2024/02/17 10:48:33;;;;;;;0.35;0.35;;;;;;;;;;5075767;28;20021;-68
2024/02/17 10:50:59;;;;;;;0.30;0.30;;;;;;;;;;5075766;28;20051;-68
2024/02/17 10:53:30;;;;;;;0.73;0.73;;;;;;;;;;5075989;28;20027;-68
2024/02/17 10:55:58;;;;;;;0.30;0.30;;;;;;;;;;5075737;28;20017;-68
2024/02/17 10:58:24;;;;;;;0.10;0.10;;;;;;;;;;5075735;28;20023;-68
2024/02/17 11:00:49;;;;;;;0.10;0.10;;;;;;;;;;5075645;28;20468;-68
2024/02/17 11:03:20;;;;;;;0.22;0.22;;;;;;;;;;5075832;28;20052;-68
2024/02/17 11:05:47;;;;;;;0.00;0.00;;;;;;;;;;5075466;28;20025;-68
2024/02/17 11:08:12;;;;;;;0.40;0.40;;;;;;;;;;5075592;28;20051;-68
2024/02/17 11:10:41;;;;;;;0.55;0.55;;;;;;;;;;5075615;28;20460;-68
2024/02/17 11:13:19;;;;;;;0.30;0.30;;;;;;;;;;5075309;28;20012;-68
2024/02/17 11:15:57;;;;;;;0.47;0.43;;;;;;;;;;5075382;28;20016;-68
2024/02/17 11:18:25;;;;;;;0.30;0.30;;;;;;;;;;5075317;28;20021;-68
2024/02/17 11:20:50;;;;;;;0.15;0.15;;;;;;;;;;5075456;28;20020;-68
2024/02/17 11:23:15;;;;;;;7.07;0.63;;;;;;;;;;5075305;28;20039;-68
2024/02/17 11:25:43;;;;;;;0.10;0.10;;;;;;;;;;5075163;28;20606;-68
2024/02/17 11:28:18;;;;;;;0.73;0.70;;;;;;;;;;5075087;28;20020;-68
2024/02/17 11:30:47;;;;;;;0.30;0.30;;;;;;;;;;5075314;28;20408;-68
2024/02/17 11:33:14;;;;;;;0.08;0.08;;;;;;;;;;5075274;28;20504;-68
2024/02/17 11:35:39;;;;;;;0.55;0.30;;;;;;;;;;5074939;28;20008;-68
2024/02/17 11:38:05;;;;;;;0.30;0.30;;;;;;;;;;5074731;28;20489;-68
2024/02/17 11:40:31;;;;;;;0.10;0.10;;;;;;;;;;5074685;28;20017;-68
2024/02/17 11:42:57;;;;;;;0.35;0.28;;;;;;;;;;5074804;28;20024;-68
2024/02/17 11:45:23;;;;;;;0.10;0.10;;;;;;;;;;5075055;28;20024;-68
2024/02/17 11:47:49;;;;;;;0.00;0.00;;;;;;;;;;5074837;28;20017;-68
2024/02/17 11:50:16;;;;;;;0.60;0.50;;;;;;;;;;5074513;28;20056;-68
2024/02/17 11:52:41;;;;;;;1.10;0.85;;;;;;;;;;5074655;28;20059;-68
2024/02/17 11:55:08;;;;;;;0.57;0.55;;;;;;;;;;5074535;28;20048;-68
2024/02/17 11:57:34;;;;;;;0.88;0.55;;;;;;;;;;5074465;28;20019;-68
2024/02/17 12:00:00;;;;;;;0.10;0.10;;;;;;;;;;5074734;28;20030;-68
2024/02/17 12:02:36;;;;;;;1.95;0.35;;;;;;;;;;5074461;28;20425;-68
2024/02/17 12:05:02;;;;;;;0.22;0.20;;;;;;;;;;5074615;28;20480;-68
2024/02/17 12:07:29;;;;;;;1.92;1.08;;;;;;;;;;5074333;28;20028;-68
2024/02/17 12:09:55;;;;;;;0.30;0.30;;;;;;;;;;5074430;28;20032;-68
2024/02/17 12:12:20;;;;;;;0.20;0.20;;;;;;;;;;5074177;28;20029;-68
2024/02/17 12:14:45;;;;;;;0.13;0.13;;;;;;;;;;5074242;28;20016;-68
2024/02/17 12:17:11;;;;;;;0.13;0.13;;;;;;;;;;5074171;28;20048;-68
2024/02/17 12:19:36;;;;;;;0.10;0.10;;;;;;;;;;5074269;28;20249;-68
2024/02/17 12:22:02;;;;;;;0.17;0.15;;;;;;;;;;5074277;28;20028;-68
2024/02/17 12:24:27;;;;;;;2.20;1.08;;;;;;;;;;5074242;28;20017;-68
2024/02/17 12:26:53;;;;;;;1.02;0.20;;;;;;;;;;5073884;28;20075;-68
2024/02/17 12:29:18;;;;;;;0.20;0.20;;;;;;;;;;5074051;28;20021;-68
2024/02/17 12:31:50;;;;;;;0.20;0.20;;;;;;;;;;5074166;28;20016;-68
2024/02/17 12:34:16;;;;;;;;;;;;;;;;;;5071661;28;20258;-68
2024/02/17 12:36:41;;;;;;;0.10;0.10;;;;;;;;;;5073656;28;19913;-68
2024/02/17 12:39:09;;;;;;;0.30;0.30;;;;;;;;;;5073747;28;20099;-68
2024/02/17 12:41:34;;;;;;;1.55;0.47;;;;;;;;;;5073929;28;20601;-68
2024/02/17 12:43:59;;;;;;;0.00;0.00;;;;;;;;;;5073673;28;20021;-68
2024/02/17 12:46:31;;;;;;;0.20;0.20;;;;;;;;;;5073653;28;20025;-68
2024/02/17 12:48:57;;;;;;;0.10;0.10;;;;;;;;;;5073496;28;20012;-68
2024/02/17 12:51:23;;;;;;;0.30;0.30;;;;;;;;;;5073363;28;20021;-68
2024/02/17 12:53:49;;;;;;;0.10;0.10;;;;;;;;;;5073502;28;20435;-68
2024/02/17 12:56:15;;;;;;;0.55;0.43;;;;;;;;;;5073608;28;20107;-68
2024/02/17 12:58:40;;;;;;;0.68;0.40;;;;;;;;;;5073800;28;20020;-68
2024/02/17 13:01:05;;;;;;;0.03;0.03;;;;;;;;;;5073410;28;20388;-68
2024/02/17 13:03:30;;;;;;;0.10;0.10;;;;;;;;;;5073366;28;20503;-68
2024/02/17 13:05:56;;;;;;;0.30;0.30;;;;;;;;;;5073387;28;20651;-68
2024/02/17 13:08:22;;;;;;;0.00;0.00;;;;;;;;;;5073549;28;20728;-67
2024/02/17 13:10:47;;;;;;;0.43;0.43;;;;;;;;;;5073274;28;20051;-67
2024/02/17 13:13:13;;;;;;;0.10;0.10;;;;;;;;;;5073278;28;20028;-67
2024/02/17 13:15:38;;;;;;;0.05;0.05;;;;;;;;;;5073456;28;20253;-68
2024/02/17 13:18:03;;;;;;;0.60;0.60;;;;;;;;;;5073265;28;20420;-68
2024/02/17 13:20:29;;;;;;;0.20;0.20;;;;;;;;;;5073225;28;20633;-68
2024/02/17 13:22:54;;;;;;;0.20;0.20;;;;;;;;;;5073446;28;20028;-67
2024/02/17 13:25:20;;;;;;;0.20;0.20;;;;;;;;;;5073114;28;20027;-68
2024/02/17 13:27:45;;;;;;;0.43;0.38;;;;;;;;;;5073051;28;20035;-67
2024/02/17 13:30:12;;;;;;;0.10;0.10;;;;;;;;;;5055294;28;20482;-68
2024/02/17 13:32:42;;;;;;;0.00;0.00;;;;;;;;;;5088280;28;20032;-68
2024/02/17 13:35:08;;;;;;;0.10;0.10;;;;;;;;;;5090870;28;20024;-68
2024/02/17 13:37:33;;;;;;;0.10;0.10;;;;;;;;;;5081714;28;20048;-68
2024/02/17 13:40:17;;;;;;;0.00;0.00;;;;;;;;;;5078886;28;20479;-68
2024/02/17 13:42:43;;;;;;;0.10;0.10;;;;;;;;;;5073026;28;20791;-67
2024/02/17 13:45:08;;;;;;;0.08;0.08;;;;;;;;;;5072918;28;20476;-68
2024/02/17 13:47:37;;;;;;;0.15;0.15;;;;;;;;;;5072980;28;20031;-68
2024/02/17 13:50:02;;;;;;;0.13;0.10;;;;;;;;;;5072800;28;20059;-68
2024/02/17 13:52:28;;;;;;;0.40;0.40;;;;;;;;;;5072952;28;20040;-68
2024/02/17 13:54:53;;;;;;;0.30;0.30;;;;;;;;;;5072898;28;20043;-68
2024/02/17 13:57:18;;;;;;;0.15;0.15;;;;;;;;;;5091882;28;20020;-78
2024/02/17 13:59:45;;;;;;;0.07;0.07;;;;;;;;;;5075051;28;20056;-76
2024/02/17 14:02:11;;;;;;;0.10;0.10;;;;;;;;;;5074913;28;20647;-79
2024/02/17 14:04:36;;;;;;;0.10;0.10;;;;;;;;;;5095824;28;20558;-67
2024/02/17 14:07:02;;;;;;;0.15;0.15;;;;;;;;;;5096910;28;20099;-67
2024/02/17 14:09:27;;;;;;;0.10;0.10;;;;;;;;;;5097178;28;20062;-67
2024/02/17 14:11:52;;;;;;;0.00;0.00;;;;;;;;;;5078686;28;20017;-68
2024/02/17 14:14:17;;;;;;;0.00;0.00;;;;;;;;;;5076714;28;20705;-68
2024/02/17 14:16:43;;;;;;;0.00;0.00;;;;;;;;;;5076422;28;20070;-68
2024/02/17 14:19:08;;;;;;;0.00;0.00;;;;;;;;;;5076656;28;20024;-68
2024/02/17 14:21:33;;;;;;;0.40;0.30;;;;;;;;;;5076284;28;20033;-68
2024/02/17 14:23:59;;;;;;;0.00;0.00;;;;;;;;;;5076532;28;20249;-68
2024/02/17 14:26:24;;;;;;;0.25;0.25;;;;;;;;;;5091907;28;20035;-68
2024/02/17 14:28:49;;;;;;;0.10;0.10;;;;;;;;;;5096528;28;20030;-67
2024/02/17 14:31:16;;;;;;;0.10;0.10;;;;;;;;;;5096700;28;20468;-68
2024/02/17 14:33:41;;;;;;;0.03;0.03;;;;;;;;;;5096274;28;20020;-67
2024/02/17 14:36:06;;;;;;;0.20;0.20;;;;;;;;;;5096344;28;20023;-71
2024/02/17 14:38:32;;;;;;;0.00;0.00;;;;;;;;;;5096490;28;20403;-75
2024/02/17 14:40:57;;;;;;;0.10;0.10;;;;;;;;;;5073159;28;20419;-76